Time;durP1;ratioP1;P1;durP2;ratioP2;P2;SDS_P1;SDS_P2;PMS_P1;PMS_P2;Temp;Humidity;BMP_temperature;BMP_pressure;BME280_temperature;BME280_humidity;BME280_pressure;Samples;Min_cycle;Max_cycle;Signal;HPM_P1;HPM_P2
2022/04/03 00:00:23;;;;;;;2.33;2.23;;;;;;;10.81;100.00;98380.31;5071082;28;20634;-62
2022/04/03 00:02:50;;;;;;;2.43;2.33;;;;;;;11.00;100.00;98400.75;5071496;28;20595;-62
2022/04/03 00:05:19;;;;;;;2.60;2.50;;;;;;;11.05;100.00;98402.19;5071160;28;20218;-62
2022/04/03 00:07:46;;;;;;;2.70;2.50;;;;;;;11.10;100.00;98403.72;5071156;28;20200;-62
2022/04/03 00:10:14;;;;;;;1.90;1.80;;;;;;;11.10;100.00;98402.00;5071010;28;20235;-62
2022/04/03 00:12:41;;;;;;;2.17;2.07;;;;;;;11.15;100.00;98407.72;5071022;28;20253;-62
2022/04/03 00:15:10;;;;;;;2.07;1.97;;;;;;;11.07;100.00;98386.75;5070956;28;20286;-63
2022/04/03 00:17:37;;;;;;;2.43;2.33;;;;;;;11.18;100.00;98405.00;5070969;28;20196;-62
2022/04/03 00:20:05;;;;;;;2.10;2.00;;;;;;;11.20;100.00;98418.59;5071049;28;20207;-62
2022/04/03 00:22:32;;;;;;;2.70;2.60;;;;;;;11.11;100.00;98413.91;5070534;28;20224;-62
2022/04/03 00:24:58;;;;;;;3.67;2.43;;;;;;;11.01;100.00;98421.22;5070448;28;20315;-62
2022/04/03 00:27:25;;;;;;;3.10;2.90;;;;;;;10.72;100.00;98400.41;5070736;28;20203;-62
2022/04/03 00:29:52;;;;;;;2.67;2.57;;;;;;;10.68;100.00;98414.25;5070841;28;20656;-62
2022/04/03 00:32:21;;;;;;;3.30;3.10;;;;;;;10.57;100.00;98406.22;5070774;28;20287;-62
2022/04/03 00:34:48;;;;;;;4.03;2.93;;;;;;;10.46;100.00;98402.44;5071099;28;20584;-62
2022/04/03 00:37:15;;;;;;;3.17;2.97;;;;;;;10.35;100.00;98396.97;5070641;28;20222;-62
2022/04/03 00:39:42;;;;;;;2.60;2.50;;;;;;;10.24;100.00;98388.13;5070871;28;20739;-62
2022/04/03 00:42:10;;;;;;;2.97;2.77;;;;;;;10.31;100.00;98380.06;5069573;28;20200;-62
2022/04/03 00:44:37;;;;;;;3.10;2.80;;;;;;;10.30;100.00;98378.44;5070442;28;20254;-62
2022/04/03 00:47:05;;;;;;;2.90;2.80;;;;;;;10.24;100.00;98358.19;5070614;28;20202;-62
2022/04/03 00:49:34;;;;;;;2.30;2.20;;;;;;;10.25;100.00;98361.59;5070631;28;20203;-62
2022/04/03 00:52:01;;;;;;;3.13;2.60;;;;;;;10.30;100.00;98363.06;5069261;28;20591;-62
2022/04/03 00:54:29;;;;;;;3.27;3.17;;;;;;;10.37;100.00;98368.72;5070787;28;20579;-60
2022/04/03 00:56:56;;;;;;;2.63;2.53;;;;;;;10.32;100.00;98351.00;5070797;28;20291;-60
2022/04/03 00:59:25;;;;;;;3.00;2.80;;;;;;;10.43;100.00;98348.78;5070513;28;20686;-59
2022/04/03 01:01:52;;;;;;;3.50;2.47;;;;;;;10.47;100.00;98344.31;5070838;28;20200;-59
2022/04/03 01:04:19;;;;;;;3.10;2.83;;;;;;;10.45;100.00;98341.84;5074898;28;20687;-59
2022/04/03 01:06:47;;;;;;;2.87;2.77;;;;;;;10.51;100.00;98338.16;5074266;28;20195;-59
2022/04/03 01:09:14;;;;;;;3.03;2.80;;;;;;;10.57;100.00;98334.47;5074559;28;20196;-59
2022/04/03 01:11:41;;;;;;;3.60;3.40;;;;;;;10.60;100.00;98334.34;5074349;28;20306;-59
2022/04/03 01:14:08;;;;;;;4.83;4.43;;;;;;;10.65;100.00;98327.28;5074227;28;20673;-59
2022/04/03 01:16:36;;;;;;;4.60;4.30;;;;;;;10.59;100.00;98304.50;5074272;28;20210;-59
2022/04/03 01:19:03;;;;;;;4.37;3.97;;;;;;;10.63;100.00;98311.16;5073581;28;20291;-60
2022/04/03 01:21:30;;;;;;;6.37;3.93;;;;;;;10.56;100.00;98307.22;5074033;28;20200;-60
2022/04/03 01:23:59;;;;;;;3.63;3.30;;;;;;;10.53;100.00;98328.69;5074231;28;20192;-59
2022/04/03 01:26:28;;;;;;;3.47;3.27;;;;;;;10.59;100.00;98322.44;5070292;28;20290;-59
2022/04/03 01:28:55;;;;;;;3.07;2.97;;;;;;;10.11;100.00;98310.97;5071568;28;20253;-59
2022/04/03 01:31:22;;;;;;;3.17;3.07;;;;;;;10.10;100.00;98318.72;5074210;28;20216;-59
2022/04/03 01:33:50;;;;;;;2.60;2.40;;;;;;;10.18;100.00;98299.56;5074216;28;20579;-59
2022/04/03 01:36:16;;;;;;;4.30;3.97;;;;;;;10.07;100.00;98314.56;5071889;28;20209;-59
2022/04/03 01:38:43;;;;;;;4.00;3.70;;;;;;;10.02;100.00;98321.63;5071862;28;20308;-59
2022/04/03 01:41:10;;;;;;;2.80;2.70;;;;;;;10.02;100.00;98301.97;5073116;28;20200;-59
2022/04/03 01:43:39;;;;;;;3.57;3.30;;;;;;;9.75;100.00;98292.16;5073773;28;20298;-60
2022/04/03 01:46:06;;;;;;;2.93;2.73;;;;;;;9.80;100.00;98308.13;5074258;28;20286;-60
2022/04/03 01:48:33;;;;;;;3.93;3.73;;;;;;;9.88;100.00;98318.84;5069996;28;20243;-60
2022/04/03 01:51:00;;;;;;;3.47;3.27;;;;;;;9.93;100.00;98311.78;5073623;28;20226;-60
2022/04/03 01:53:27;;;;;;;3.10;2.90;;;;;;;10.02;100.00;98316.50;5073815;28;20291;-60
2022/04/03 01:56:01;;;;;;;3.10;2.90;;;;;;;9.87;100.00;98306.94;5073604;28;20750;-60
2022/04/03 01:58:28;;;;;;;3.57;3.37;;;;;;;9.86;100.00;98316.34;5073586;28;20187;-59
2022/04/03 02:00:57;;;;;;;5.00;3.27;;;;;;;9.84;100.00;98313.03;5073634;28;20680;-60
2022/04/03 02:03:24;;;;;;;3.50;3.20;;;;;;;9.76;100.00;98304.03;5073499;28;20200;-59
2022/04/03 02:05:51;;;;;;;3.80;3.60;;;;;;;9.73;100.00;98309.28;5073511;28;20197;-60
2022/04/03 02:08:18;;;;;;;4.17;3.93;;;;;;;9.61;100.00;98314.94;5073191;28;20287;-60
2022/04/03 02:10:45;;;;;;;8.37;6.83;;;;;;;9.54;100.00;98314.38;5073624;28;20557;-60
2022/04/03 02:13:12;;;;;;;7.73;5.90;;;;;;;9.66;100.00;98323.25;5073283;28;20192;-60
2022/04/03 02:15:40;;;;;;;4.73;4.13;;;;;;;9.69;100.00;98320.56;5072589;28;20561;-60
2022/04/03 02:18:09;;;;;;;4.17;3.53;;;;;;;9.73;100.00;98329.75;5072953;28;20200;-60
2022/04/03 02:20:36;;;;;;;3.27;2.97;;;;;;;9.68;100.00;98321.47;5073117;28;20208;-60
2022/04/03 02:23:04;;;;;;;2.93;2.83;;;;;;;9.37;100.00;98319.41;5072671;28;20219;-60
2022/04/03 02:25:31;;;;;;;3.40;3.10;;;;;;;9.27;100.00;98320.69;5073083;28;20204;-59
2022/04/03 02:27:59;;;;;;;16.67;3.83;;;;;;;9.24;100.00;98326.72;5072907;28;20239;-59
2022/04/03 02:30:26;;;;;;;7.07;2.83;;;;;;;9.12;100.00;98317.03;5072922;28;20205;-60
2022/04/03 02:32:53;;;;;;;4.00;3.70;;;;;;;9.07;100.00;98341.97;5072748;28;20196;-60
2022/04/03 02:35:21;;;;;;;22.63;4.50;;;;;;;8.99;100.00;98336.31;5072608;28;20220;-60
2022/04/03 02:37:48;;;;;;;3.43;3.23;;;;;;;8.71;100.00;98336.59;5071779;28;20207;-60
2022/04/03 02:40:18;;;;;;;12.37;3.37;;;;;;;8.71;100.00;98343.44;5072916;28;20200;-60
2022/04/03 02:42:45;;;;;;;9.47;2.87;;;;;;;8.72;100.00;98342.56;5072956;28;20203;-60
2022/04/03 02:45:12;;;;;;;3.70;3.33;;;;;;;8.73;100.00;98334.81;5068395;28;20204;-61
2022/04/03 02:47:40;;;;;;;3.50;3.30;;;;;;;8.85;100.00;98330.94;5072628;28;20676;-60
2022/04/03 02:50:09;;;;;;;3.70;2.77;;;;;;;8.82;100.00;98336.19;5072591;28;20200;-59
2022/04/03 02:52:37;;;;;;;3.40;2.67;;;;;;;8.92;100.00;98335.72;5072702;28;20307;-59
2022/04/03 02:55:05;;;;;;;3.70;2.83;;;;;;;8.94;100.00;98341.63;5072418;28;20223;-59
2022/04/03 02:57:32;;;;;;;3.90;3.57;;;;;;;8.85;100.00;98328.41;5072328;28;20575;-60
2022/04/03 02:59:59;;;;;;;2.93;2.83;;;;;;;8.95;100.00;98340.72;5072580;28;20192;-60
2022/04/03 03:02:26;;;;;;;3.90;3.13;;;;;;;8.96;100.00;98339.00;5072048;28;20270;-60
2022/04/03 03:04:53;;;;;;;2.23;2.13;;;;;;;9.03;100.00;98339.56;5072654;28;20735;-60
2022/04/03 03:07:21;;;;;;;2.87;2.67;;;;;;;9.00;100.00;98321.81;5072208;28;20287;-60
2022/04/03 03:09:49;;;;;;;2.53;2.43;;;;;;;9.01;100.00;98329.44;5072387;28;20695;-59
2022/04/03 03:12:17;;;;;;;1.70;1.60;;;;;;;8.74;100.00;98289.66;5071967;28;20222;-61
2022/04/03 03:14:44;;;;;;;2.40;2.20;;;;;;;8.86;100.00;98312.16;5071996;28;20691;-59
2022/04/03 03:17:11;;;;;;;3.27;2.37;;;;;;;8.89;100.00;98324.81;5071968;28;20222;-60
2022/04/03 03:19:38;;;;;;;2.80;2.60;;;;;;;8.95;100.00;98322.00;5072185;28;20200;-60
2022/04/03 03:22:07;;;;;;;2.57;2.47;;;;;;;8.99;100.00;98326.09;5068229;28;20710;-59
2022/04/03 03:24:34;;;;;;;1.70;1.67;;;;;;;8.91;100.00;98325.59;5072006;28;20230;-60
2022/04/03 03:27:03;;;;;;;2.33;2.23;;;;;;;8.92;100.00;98328.06;5071752;28;20295;-60
2022/04/03 03:29:29;;;;;;;2.07;1.97;;;;;;;8.77;100.00;98315.06;5071963;28;20278;-60
2022/04/03 03:31:56;;;;;;;2.30;2.20;;;;;;;8.90;100.00;98336.69;5071822;28;20603;-59
2022/04/03 03:34:23;;;;;;;2.43;2.33;;;;;;;8.90;100.00;98344.34;5071154;28;20196;-59
2022/04/03 03:36:50;;;;;;;1.90;1.80;;;;;;;8.85;100.00;98349.63;5071034;28;20291;-59
2022/04/03 03:39:17;;;;;;;1.90;1.80;;;;;;;8.80;100.00;98350.72;5071940;28;20200;-59
2022/04/03 03:41:45;;;;;;;2.50;2.33;;;;;;;8.89;100.00;98356.31;5071635;28;20660;-60
2022/04/03 03:44:13;;;;;;;2.50;2.40;;;;;;;8.77;100.00;98341.47;5071710;28;20274;-61
2022/04/03 03:46:40;;;;;;;1.97;1.87;;;;;;;8.93;100.00;98359.56;5071150;28;20196;-59
2022/04/03 03:49:08;;;;;;;1.63;1.60;;;;;;;8.95;100.00;98365.44;5071584;28;20196;-59
2022/04/03 03:51:35;;;;;;;2.20;2.10;;;;;;;8.96;100.00;98362.00;5071167;28;20726;-61
2022/04/03 03:54:02;;;;;;;2.00;1.90;;;;;;;8.87;100.00;98363.22;5071358;28;20207;-59
2022/04/03 03:56:29;;;;;;;2.10;2.00;;;;;;;8.95;100.00;98370.56;5071370;28;20257;-59
2022/04/03 03:58:56;;;;;;;3.43;2.00;;;;;;;8.93;100.00;98374.91;5070139;28;20223;-59
2022/04/03 04:01:25;;;;;;;2.73;2.63;;;;;;;8.94;100.00;98384.25;5071615;28;20629;-60
2022/04/03 04:03:51;;;;;;;2.40;2.30;;;;;;;8.93;100.00;98390.25;5071191;28;20279;-60
2022/04/03 04:06:18;;;;;;;1.93;1.83;;;;;;;8.89;100.00;98381.03;5071573;28;20207;-60
2022/04/03 04:08:45;;;;;;;2.50;2.30;;;;;;;8.93;100.00;98383.41;5071138;28;20654;-60
2022/04/03 04:11:12;;;;;;;3.13;3.00;;;;;;;9.06;100.00;98401.63;5071089;28;20300;-60
2022/04/03 04:13:39;;;;;;;3.20;3.03;;;;;;;9.10;100.00;98395.53;5071442;28;20215;-60
2022/04/03 04:16:06;;;;;;;3.23;3.03;;;;;;;9.08;100.00;98387.06;5071121;28;20291;-60
2022/04/03 04:18:36;;;;;;;3.70;3.40;;;;;;;9.17;100.00;98396.94;5071400;28;20299;-60
2022/04/03 04:21:03;;;;;;;3.13;2.93;;;;;;;9.16;100.00;98385.03;5070823;28;20287;-60
2022/04/03 04:23:30;;;;;;;4.20;3.90;;;;;;;9.25;100.00;98397.44;5070974;28;20219;-60
2022/04/03 04:25:57;;;;;;;3.03;2.87;;;;;;;9.24;100.00;98400.88;5071044;28;20670;-60
2022/04/03 04:28:24;;;;;;;3.30;3.10;;;;;;;9.27;100.00;98402.50;5070345;28;20199;-59
2022/04/03 04:30:51;;;;;;;2.50;2.40;;;;;;;9.29;100.00;98401.56;5070667;28;20195;-60
2022/04/03 04:33:19;;;;;;;2.83;2.63;;;;;;;9.30;100.00;98403.22;5069776;28;20235;-59
2022/04/03 04:35:47;;;;;;;2.60;2.40;;;;;;;9.28;100.00;98404.16;5071076;28;20618;-60
2022/04/03 04:38:14;;;;;;;1.80;1.70;;;;;;;9.27;100.00;98416.09;5070396;28;20228;-60
2022/04/03 04:40:41;;;;;;;2.63;2.47;;;;;;;9.27;100.00;98403.31;5070804;28;20204;-60
2022/04/03 04:43:07;;;;;;;2.57;2.47;;;;;;;9.24;100.00;98403.44;5070874;28;20755;-60
2022/04/03 04:45:34;;;;;;;2.67;2.47;;;;;;;9.36;100.00;98433.66;5070869;28;20203;-59
2022/04/03 04:48:01;;;;;;;2.07;1.97;;;;;;;9.33;100.00;98438.91;5070703;28;20199;-59
2022/04/03 04:50:29;;;;;;;3.10;2.10;;;;;;;9.31;100.00;98439.84;5071117;28;20571;-59
2022/04/03 04:52:58;;;;;;;2.40;2.30;;;;;;;9.20;100.00;98431.78;5070826;28;20281;-61
2022/04/03 04:55:26;;;;;;;5.87;5.47;;;;;;;9.29;100.00;98447.59;5070612;28;20203;-59
2022/04/03 04:57:54;;;;;;;5.80;5.50;;;;;;;9.32;100.00;98457.69;5070504;28;20204;-60
2022/04/03 05:00:22;;;;;;;4.87;4.47;;;;;;;9.17;100.00;98437.84;5070730;28;20196;-60
2022/04/03 05:02:50;;;;;;;4.10;3.90;;;;;;;9.20;100.00;98437.72;5070556;28;20231;-60
2022/04/03 05:05:18;;;;;;;5.30;2.13;;;;;;;9.29;100.00;98456.97;5070333;28;20200;-60
2022/04/03 05:07:45;;;;;;;2.87;2.43;;;;;;;9.30;100.00;98450.97;5071021;28;20656;-60
2022/04/03 05:10:15;;;;;;;2.43;2.33;;;;;;;9.29;100.00;98457.81;5070480;28;20204;-60
2022/04/03 05:12:42;;;;;;;6.33;4.57;;;;;;;9.31;100.00;98471.34;5070686;28;20208;-60
2022/04/03 05:15:11;;;;;;;2.83;2.63;;;;;;;9.24;100.00;98462.25;5070263;28;20307;-60
2022/04/03 05:17:39;;;;;;;3.13;2.93;;;;;;;8.99;100.00;98418.09;5070292;28;20203;-58
2022/04/03 05:20:06;;;;;;;2.77;2.40;;;;;;;9.18;100.00;98465.06;5070352;28;20292;-60
2022/04/03 05:22:33;;;;;;;3.10;3.00;;;;;;;9.26;100.00;98482.66;5070324;28;20222;-59
2022/04/03 05:25:03;;;;;;;2.67;2.47;;;;;;;9.16;100.00;98471.97;5070455;28;20224;-59
2022/04/03 05:27:32;;;;;;;3.27;1.67;;;;;;;9.10;100.00;98471.38;5069411;28;20207;-64
2022/04/03 05:29:59;;;;;;;1.97;1.87;;;;;;;9.01;100.00;98493.03;5069417;28;20291;-65
2022/04/03 05:32:27;;;;;;;2.40;2.30;;;;;;;9.02;100.00;98487.00;5068457;28;20219;-64
2022/04/03 05:34:54;;;;;;;5.30;2.30;;;;;;;9.01;100.00;98495.59;5070382;28;20214;-65
2022/04/03 05:37:21;;;;;;;2.50;2.30;;;;;;;8.94;100.00;98501.81;5068927;28;20295;-64
2022/04/03 05:39:47;;;;;;;2.10;1.50;;;;;;;9.07;100.00;98497.91;5070296;28;20219;-64
2022/04/03 05:42:14;;;;;;;3.37;3.17;;;;;;;9.22;100.00;98483.69;5070039;28;20246;-64
2022/04/03 05:44:43;;;;;;;3.17;2.97;;;;;;;9.61;100.00;98509.41;5069802;28;20675;-64
2022/04/03 05:47:10;;;;;;;2.20;2.10;;;;;;;9.97;100.00;98518.13;5069638;28;20291;-65
2022/04/03 05:49:37;;;;;;;1.63;1.60;;;;;;;10.26;100.00;98515.19;5071161;28;20640;-66
2022/04/03 05:52:04;;;;;;;2.33;2.17;;;;;;;10.59;100.00;98517.19;5073590;28;20247;-64
2022/04/03 05:54:31;;;;;;;2.07;1.97;;;;;;;10.80;100.00;98521.34;5073573;28;20583;-67
2022/04/03 05:56:58;;;;;;;1.40;1.40;;;;;;;10.97;97.06;98503.47;5069744;28;20649;-68
2022/04/03 05:59:25;;;;;;;1.60;1.50;;;;;;;11.13;94.81;98524.13;5073257;28;20294;-62
2022/04/03 06:01:54;;;;;;;1.60;1.50;;;;;;;11.38;95.67;98525.47;5073519;28;20262;-59
2022/04/03 06:04:21;;;;;;;1.40;1.33;;;;;;;11.71;93.75;98522.22;5073890;28;20230;-62
2022/04/03 06:06:47;;;;;;;0.90;0.90;;;;;;;11.99;88.86;98517.38;5073560;28;20283;-62
2022/04/03 06:09:15;;;;;;;1.00;1.00;;;;;;;12.32;85.74;98536.25;5073546;28;20196;-60
2022/04/03 06:11:41;;;;;;;1.30;0.90;;;;;;;12.62;83.97;98538.97;5073053;28;20207;-65
2022/04/03 06:14:12;;;;;;;0.90;0.90;;;;;;;12.87;83.82;98538.53;5073346;28;20283;-63
2022/04/03 06:16:39;;;;;;;1.10;1.00;;;;;;;13.15;83.21;98534.41;5071213;28;20208;-62
2022/04/03 06:19:07;;;;;;;0.70;0.70;;;;;;;13.27;83.24;98519.22;5073241;28;20196;-64
2022/04/03 06:21:34;;;;;;;0.90;0.90;;;;;;;13.51;77.91;98541.88;5072639;28;20211;-63
2022/04/03 06:24:01;;;;;;;0.90;0.90;;;;;;;13.52;77.59;98542.69;5073055;28;20196;-66
2022/04/03 06:26:28;;;;;;;0.60;0.60;;;;;;;13.59;76.89;98552.56;5071812;28;20211;-64
2022/04/03 06:28:55;;;;;;;0.90;0.90;;;;;;;13.71;76.05;98547.63;5072290;28;20573;-65
2022/04/03 06:31:22;;;;;;;1.00;0.87;;;;;;;13.89;76.30;98555.19;5073180;28;20214;-65
2022/04/03 06:33:49;;;;;;;0.77;0.77;;;;;;;14.11;76.51;98555.59;5072712;28;20212;-64
2022/04/03 06:36:17;;;;;;;0.87;0.87;;;;;;;14.16;73.39;98548.44;5073072;28;20708;-65
2022/04/03 06:38:44;;;;;;;1.00;1.00;;;;;;;14.37;73.17;98556.69;5072104;28;20223;-64
2022/04/03 06:41:11;;;;;;;1.10;0.80;;;;;;;14.42;69.78;98561.56;5072581;28;20203;-64
2022/04/03 06:43:38;;;;;;;0.77;0.77;;;;;;;14.61;70.19;98564.72;5072691;28;20660;-64
2022/04/03 06:46:05;;;;;;;0.70;0.70;;;;;;;14.57;70.38;98571.00;5072727;28;20242;-65
2022/04/03 06:48:32;;;;;;;0.70;0.70;;;;;;;14.78;70.73;98563.69;5072662;28;20207;-64
2022/04/03 06:50:59;;;;;;;0.70;0.70;;;;;;;15.05;74.03;98564.63;5072308;28;20287;-66
2022/04/03 06:53:27;;;;;;;0.73;0.73;;;;;;;15.24;71.76;98567.72;5072392;28;20218;-65
2022/04/03 06:55:54;;;;;;;0.80;0.80;;;;;;;15.55;71.52;98567.47;5072237;28;20299;-68
2022/04/03 06:58:21;;;;;;;0.80;0.80;;;;;;;15.72;70.65;98575.00;5072575;28;20295;-67
2022/04/03 07:00:48;;;;;;;0.50;0.50;;;;;;;15.92;66.32;98570.28;5071763;28;20587;-67
2022/04/03 07:03:14;;;;;;;0.93;0.93;;;;;;;16.06;64.95;98573.63;5072357;28;20283;-67
2022/04/03 07:05:41;;;;;;;0.87;0.70;;;;;;;16.13;67.80;98586.97;5072370;28;20213;-67
2022/04/03 07:08:08;;;;;;;1.00;1.00;;;;;;;16.09;64.75;98586.34;5072167;28;20209;-67
2022/04/03 07:10:37;;;;;;;0.70;0.70;;;;;;;16.24;67.03;98592.28;5072314;28;20290;-66
2022/04/03 07:13:04;;;;;;;1.50;0.80;;;;;;;16.32;64.09;98605.50;5071898;28;20317;-67
2022/04/03 07:15:31;;;;;;;0.80;0.80;;;;;;;16.16;60.23;98604.88;5072039;28;20195;-68
2022/04/03 07:17:58;;;;;;;0.60;0.60;;;;;;;16.25;62.45;98614.63;5071781;28;20282;-67
2022/04/03 07:20:25;;;;;;;0.60;0.60;;;;;;;16.30;61.18;98612.56;5071919;28;20198;-68
2022/04/03 07:22:51;;;;;;;0.90;0.90;;;;;;;16.43;62.95;98616.00;5071742;28;20221;-62
2022/04/03 07:25:19;;;;;;;0.60;0.60;;;;;;;16.43;61.05;98623.75;5069401;28;20204;-62
2022/04/03 07:27:47;;;;;;;0.87;0.87;;;;;;;16.68;64.99;98620.38;5071026;28;20282;-63
2022/04/03 07:30:14;;;;;;;0.77;0.77;;;;;;;16.79;59.49;98626.50;5071735;28;20299;-63
2022/04/03 07:32:41;;;;;;;0.80;0.80;;;;;;;16.61;62.17;98607.03;5068813;28;20311;-63
2022/04/03 07:35:09;;;;;;;1.03;1.03;;;;;;;16.84;66.24;98617.59;5071428;28;20224;-62
2022/04/03 07:37:37;;;;;;;1.03;1.00;;;;;;;16.78;58.64;98642.97;5071663;28;20199;-62
2022/04/03 07:40:06;;;;;;;0.50;0.50;;;;;;;16.97;58.65;98636.53;5071350;28;20200;-63
2022/04/03 07:42:33;;;;;;;0.83;0.83;;;;;;;16.89;60.69;98644.00;5071655;28;20200;-59
2022/04/03 07:45:04;;;;;;;0.70;0.70;;;;;;;17.05;61.17;98642.03;5071817;28;20730;-59
2022/04/03 07:47:31;;;;;;;0.80;0.80;;;;;;;17.00;61.03;98634.56;5071960;28;21552;-60
2022/04/03 07:49:59;;;;;;;0.93;0.93;;;;;;;17.04;57.55;98646.38;5070931;28;20290;-60
2022/04/03 07:52:26;;;;;;;1.07;1.00;;;;;;;17.06;59.05;98654.84;5069793;28;20216;-60
2022/04/03 07:54:53;;;;;;;1.00;1.00;;;;;;;16.93;54.85;98661.00;5069383;28;20283;-60
2022/04/03 07:57:20;;;;;;;0.97;0.97;;;;;;;17.03;53.00;98656.81;5071148;28;20207;-60
2022/04/03 07:59:47;;;;;;;1.20;1.20;;;;;;;17.20;55.09;98646.97;5071546;28;20282;-61
2022/04/03 08:02:15;;;;;;;0.80;0.80;;;;;;;17.36;51.93;98648.50;5071142;28;20366;-60
2022/04/03 08:04:42;;;;;;;1.03;0.97;;;;;;;17.51;55.18;98650.84;5071121;28;20199;-60
2022/04/03 08:07:09;;;;;;;1.30;0.70;;;;;;;17.40;53.24;98643.00;5071171;28;20664;-59
2022/04/03 08:09:36;;;;;;;0.50;0.50;;;;;;;17.11;53.33;98650.22;5071640;28;20228;-59
2022/04/03 08:12:03;;;;;;;0.70;0.70;;;;;;;16.92;53.25;98646.38;5070604;28;20731;-60
2022/04/03 08:14:31;;;;;;;0.50;0.47;;;;;;;16.39;52.12;98668.84;5071132;28;20247;-59
2022/04/03 08:16:58;;;;;;;0.70;0.70;;;;;;;16.17;54.39;98653.91;5071027;28;20203;-60
2022/04/03 08:19:26;;;;;;;0.50;0.50;;;;;;;15.97;54.18;98661.28;5071062;28;20236;-60
2022/04/03 08:21:53;;;;;;;0.50;0.50;;;;;;;16.04;56.02;98647.03;5070384;28;20220;-67
2022/04/03 08:24:20;;;;;;;0.60;0.60;;;;;;;16.19;57.72;98656.38;5070193;28;20209;-67
2022/04/03 08:26:46;;;;;;;0.60;0.60;;;;;;;16.37;59.62;98650.03;5070828;28;20217;-67
2022/04/03 08:29:13;;;;;;;0.53;0.53;;;;;;;16.55;59.42;98651.44;5070837;28;20201;-68
2022/04/03 08:31:40;;;;;;;0.50;0.50;;;;;;;16.51;59.29;98662.88;5071051;28;20207;-66
2022/04/03 08:34:07;;;;;;;0.77;0.77;;;;;;;16.54;58.82;98661.88;5071011;28;20210;-66
2022/04/03 08:36:35;;;;;;;0.70;0.70;;;;;;;16.48;55.40;98651.94;5071058;28;20660;-66
2022/04/03 08:39:02;;;;;;;0.80;0.80;;;;;;;16.54;57.76;98657.50;5071148;28;20709;-67
2022/04/03 08:41:29;;;;;;;0.70;0.70;;;;;;;16.58;57.75;98643.47;5070672;28;20211;-68
2022/04/03 08:43:56;;;;;;;0.70;0.70;;;;;;;16.61;56.39;98655.34;5070962;28;20576;-68
2022/04/03 08:46:25;;;;;;;0.50;0.50;;;;;;;16.36;56.81;98648.38;5070883;28;20207;-67
2022/04/03 08:48:54;;;;;;;0.67;0.67;;;;;;;15.85;54.71;98656.91;5070456;28;20261;-67
2022/04/03 08:51:22;;;;;;;0.63;0.63;;;;;;;15.33;54.14;98674.75;5070472;28;20200;-67
2022/04/03 08:53:51;;;;;;;0.70;0.70;;;;;;;15.17;56.74;98680.03;5070387;28;20220;-67
2022/04/03 08:56:18;;;;;;;0.70;0.70;;;;;;;14.99;57.26;98681.94;5070583;28;20680;-67
2022/04/03 08:58:45;;;;;;;0.70;0.70;;;;;;;14.58;58.23;98676.63;5070433;28;20283;-67
2022/04/03 09:01:12;;;;;;;1.33;0.67;;;;;;;14.28;58.81;98662.06;5070802;28;20624;-68
2022/04/03 09:03:39;;;;;;;0.60;0.60;;;;;;;14.37;58.82;98670.16;5070554;28;20232;-67
2022/04/03 09:06:14;;;;;;;0.60;0.60;;;;;;;14.60;58.46;98679.94;5070693;28;20192;-68
2022/04/03 09:08:41;;;;;;;0.50;0.50;;;;;;;15.01;59.50;98668.97;5070583;28;20666;-68
2022/04/03 09:11:10;;;;;;;0.50;0.50;;;;;;;15.41;56.91;98667.41;5070476;28;20288;-69
2022/04/03 09:13:38;;;;;;;0.60;0.60;;;;;;;15.70;52.60;98658.69;5070379;28;20303;-68
2022/04/03 09:16:07;;;;;;;0.50;0.50;;;;;;;15.93;49.74;98657.25;5070720;28;20690;-68
2022/04/03 09:18:47;;;;;;;0.40;0.40;;;;;;;16.05;50.32;98649.53;5070286;28;20302;-68
2022/04/03 09:21:22;;;;;;;0.80;0.80;;;;;;;16.18;49.66;98641.81;5068427;28;20212;-68
2022/04/03 09:24:06;;;;;;;0.67;0.67;;;;;;;16.58;50.91;98664.16;5071639;28;20223;-68
2022/04/03 09:26:35;;;;;;;0.40;0.40;;;;;;;16.82;51.23;98663.47;5072415;28;20618;-71
2022/04/03 09:29:10;;;;;;;0.80;0.80;;;;;;;16.99;51.78;98673.53;5074200;28;20659;-68
2022/04/03 09:31:38;;;;;;;0.80;0.80;;;;;;;17.07;47.42;98677.25;5073994;28;20218;-68
2022/04/03 09:34:07;;;;;;;0.60;0.60;;;;;;;16.86;46.19;98673.53;5073836;28;20307;-63
2022/04/03 09:36:35;;;;;;;0.40;0.40;;;;;;;16.94;50.11;98670.41;5073849;28;20290;-63
2022/04/03 09:39:07;;;;;;;0.70;0.70;;;;;;;17.19;50.63;98675.56;5073856;28;20196;-63
2022/04/03 09:41:55;;;;;;;0.70;0.70;;;;;;;17.34;50.03;98671.94;5073790;28;20204;-63
2022/04/03 09:44:27;;;;;;;0.60;0.60;;;;;;;17.52;49.58;98662.88;5073828;28;20584;-63
2022/04/03 09:47:20;;;;;;;0.70;0.70;;;;;;;17.28;50.99;98643.88;5073768;28;20204;-63
2022/04/03 09:49:53;;;;;;;0.70;0.70;;;;;;;17.40;49.13;98674.09;5073793;28;20210;-63
2022/04/03 09:52:34;;;;;;;0.70;0.70;;;;;;;17.70;51.19;98682.38;5073756;28;20203;-63
2022/04/03 09:55:01;;;;;;;0.50;0.50;;;;;;;17.71;47.11;98668.44;5073555;28;20298;-63
2022/04/03 09:57:29;;;;;;;0.50;0.50;;;;;;;17.87;46.71;98673.38;5073657;28;20748;-63
2022/04/03 09:59:56;;;;;;;0.73;0.73;;;;;;;17.86;48.31;98681.28;5073455;28;20236;-63
2022/04/03 10:02:24;;;;;;;0.60;0.60;;;;;;;18.07;48.28;98680.56;5073641;28;20579;-64
2022/04/03 10:04:52;;;;;;;0.77;0.77;;;;;;;18.08;48.03;98671.00;5073081;28;20257;-64
2022/04/03 10:07:20;;;;;;;1.13;0.83;;;;;;;17.95;46.23;98685.78;5073383;28;20217;-63
2022/04/03 10:09:49;;;;;;;0.90;0.90;;;;;;;18.03;43.85;98673.13;5073740;28;20200;-63
2022/04/03 10:12:17;;;;;;;0.70;0.70;;;;;;;18.12;46.59;98672.47;5073467;28;20204;-63
2022/04/03 10:14:46;;;;;;;0.70;0.70;;;;;;;18.26;44.50;98685.22;5073125;28;20257;-64
2022/04/03 10:17:14;;;;;;;0.77;0.77;;;;;;;17.97;44.88;98696.88;5072354;28;20204;-65
2022/04/03 10:19:42;;;;;;;0.73;0.73;;;;;;;17.75;45.74;98700.16;5072348;28;20710;-65
2022/04/03 10:22:12;;;;;;;0.60;0.60;;;;;;;17.70;43.63;98697.91;5073132;28;20259;-65
2022/04/03 10:24:43;;;;;;;0.70;0.70;;;;;;;17.81;48.06;98685.00;5073447;28;20688;-65
2022/04/03 10:27:15;;;;;;;0.60;0.60;;;;;;;17.93;42.20;98703.25;5073482;28;20283;-65
2022/04/03 10:29:45;;;;;;;0.60;0.60;;;;;;;17.96;45.42;98709.03;5072939;28;20200;-65
2022/04/03 10:32:24;;;;;;;0.50;0.50;;;;;;;18.12;44.38;98701.00;5073080;28;20723;-65
2022/04/03 10:34:54;;;;;;;0.40;0.40;;;;;;;18.15;43.95;98695.56;5072185;28;20215;-65
2022/04/03 10:37:26;;;;;;;0.50;0.50;;;;;;;18.26;48.82;98690.44;5072835;28;20196;-65
2022/04/03 10:39:54;;;;;;;0.70;0.70;;;;;;;18.26;47.54;98706.81;5072731;28;20287;-65
2022/04/03 10:42:26;;;;;;;0.50;0.50;;;;;;;18.11;46.75;98696.72;5072839;28;20211;-65
2022/04/03 10:45:26;;;;;;;0.67;0.67;;;;;;;18.15;46.16;98699.00;5072540;28;20192;-63
2022/04/03 10:48:13;;;;;;;3.60;0.77;;;;;;;18.19;44.34;98704.81;5072775;28;20199;-68
2022/04/03 10:51:05;;;;;;;0.50;0.50;;;;;;;18.09;45.49;98709.81;5072420;28;20273;-68
2022/04/03 10:53:34;;;;;;;0.50;0.50;;;;;;;17.94;42.64;98704.88;5072253;28;20216;-68
2022/04/03 10:56:07;;;;;;;0.60;0.60;;;;;;;18.02;42.39;98705.19;5072198;28;20203;-68
2022/04/03 10:58:45;;;;;;;0.87;0.87;;;;;;;18.07;47.82;98695.28;5072672;28;20611;-68
2022/04/03 11:01:27;;;;;;;0.90;0.90;;;;;;;18.14;44.13;98678.34;5072375;28;20679;-68
2022/04/03 11:03:57;;;;;;;0.70;0.70;;;;;;;18.23;44.54;98691.47;5072416;28;20196;-64
2022/04/03 11:06:35;;;;;;;0.50;0.50;;;;;;;18.13;40.60;98693.09;5068390;28;20196;-63
2022/04/03 11:09:12;;;;;;;0.50;0.50;;;;;;;18.24;45.05;98690.56;5070382;28;20238;-63
2022/04/03 11:11:44;;;;;;;0.50;0.50;;;;;;;18.27;42.12;98690.31;5071668;28;20200;-63
2022/04/03 11:14:12;;;;;;;0.63;0.63;;;;;;;18.25;42.02;98689.63;5071188;28;20753;-63
2022/04/03 11:16:52;;;;;;;0.53;0.53;;;;;;;18.36;44.16;98697.44;5071191;28;20290;-69
2022/04/03 11:19:42;;;;;;;0.70;0.70;;;;;;;18.53;42.45;98678.06;5070743;28;20286;-68
2022/04/03 11:22:13;;;;;;;1.77;0.50;;;;;;;18.50;41.81;98672.28;5071688;28;20306;-67
2022/04/03 11:24:40;;;;;;;0.50;0.50;;;;;;;18.53;41.73;98687.63;5072029;28;20576;-67
2022/04/03 11:27:09;;;;;;;0.60;0.60;;;;;;;18.42;38.31;98690.97;5071986;28;20249;-60
2022/04/03 11:29:36;;;;;;;3.00;0.60;;;;;;;18.23;37.97;98685.47;5072268;28;20204;-61
2022/04/03 11:32:07;;;;;;;0.60;0.60;;;;;;;18.18;38.22;98692.75;5072520;28;20553;-59
2022/04/03 11:34:35;;;;;;;0.50;0.50;;;;;;;18.10;37.94;98666.53;5072040;28;20211;-60
2022/04/03 11:37:04;;;;;;;0.43;0.43;;;;;;;18.10;40.99;98680.34;5071716;28;20619;-60